createdAt,value
2022-11-14T00:01:13.008Z,0.90
2022-11-14T00:03:39.950Z,0.98
2022-11-14T00:06:07.579Z,1.00
2022-11-14T00:08:34.565Z,1.00
2022-11-14T00:11:01.702Z,0.93
2022-11-14T00:13:28.523Z,0.65
2022-11-14T00:15:55.343Z,0.90
2022-11-14T00:18:22.456Z,1.00
2022-11-14T00:20:50.519Z,0.75
2022-11-14T00:23:17.715Z,0.65
2022-11-14T00:25:46.209Z,0.80
2022-11-14T00:28:13.426Z,0.60
2022-11-14T00:30:40.312Z,0.90
2022-11-14T00:33:07.123Z,0.73
2022-11-14T00:35:33.945Z,0.90
2022-11-14T00:38:01.053Z,1.15
2022-11-14T00:40:27.847Z,0.88
2022-11-14T00:42:54.819Z,1.08
2022-11-14T00:45:21.929Z,1.00
2022-11-14T00:47:48.769Z,0.80
2022-11-14T00:50:16.923Z,1.17
2022-11-14T00:52:43.710Z,1.10
2022-11-14T00:55:10.520Z,0.80
2022-11-14T00:57:37.276Z,0.98
2022-11-14T01:00:05.417Z,1.27
2022-11-14T01:02:32.265Z,1.17
2022-11-14T01:04:59.043Z,1.30
2022-11-14T01:07:25.934Z,1.20
2022-11-14T01:09:52.744Z,1.15
2022-11-14T01:12:19.578Z,1.10
2022-11-14T01:14:46.376Z,1.02
2022-11-14T01:17:13.276Z,0.98
2022-11-14T01:19:40.572Z,1.02
2022-11-14T01:22:07.351Z,1.27
2022-11-14T01:24:34.858Z,1.25
2022-11-14T01:27:02.099Z,1.00
2022-11-14T01:29:28.967Z,1.85
2022-11-14T01:31:56.952Z,1.48
2022-11-14T01:34:23.910Z,2.17
2022-11-14T01:36:50.778Z,2.38
2022-11-14T01:39:17.573Z,2.38
2022-11-14T01:41:44.387Z,1.70
2022-11-14T01:44:16.655Z,1.98
2022-11-14T01:46:48.440Z,4.20
2022-11-14T01:49:15.237Z,4.95
2022-11-14T01:51:48.721Z,5.10
2022-11-14T01:54:28.152Z,5.22
2022-11-14T01:57:02.533Z,5.53
2022-11-14T01:59:38.468Z,4.78
2022-11-14T02:02:16.075Z,4.22
2022-11-14T02:04:50.682Z,7.22
2022-11-14T02:07:18.679Z,6.55
2022-11-14T02:09:47.302Z,6.05
2022-11-14T02:12:17.352Z,5.90
2022-11-14T02:14:46.360Z,5.15
2022-11-14T02:17:29.044Z,5.60
2022-11-14T02:20:05.275Z,4.32
2022-11-14T02:22:32.778Z,4.43
2022-11-14T02:24:59.582Z,5.88
2022-11-14T02:27:26.939Z,5.85
2022-11-14T02:29:53.754Z,5.28
2022-11-14T02:32:20.555Z,5.07
2022-11-14T02:34:47.336Z,4.43
2022-11-14T02:37:16.949Z,5.03
2022-11-14T02:39:43.681Z,5.68
2022-11-14T02:42:10.508Z,5.47
2022-11-14T02:44:37.378Z,4.57
2022-11-14T02:47:04.211Z,3.63
2022-11-14T02:49:31.124Z,2.80
2022-11-14T02:51:57.931Z,2.92
2022-11-14T02:54:24.693Z,2.88
2022-11-14T02:56:51.451Z,1.80
2022-11-14T02:59:18.416Z,1.77
2022-11-14T03:01:45.437Z,2.35
2022-11-14T03:04:12.281Z,1.80
2022-11-14T03:06:39.073Z,2.05
2022-11-14T03:09:05.968Z,2.05
2022-11-14T03:11:32.715Z,1.90
2022-11-14T03:14:00.350Z,1.92
2022-11-14T03:16:27.220Z,2.13
2022-11-14T03:18:53.993Z,2.38
2022-11-14T03:21:24.263Z,2.72
2022-11-14T03:23:51.035Z,2.28
2022-11-14T03:26:17.838Z,2.38
2022-11-14T03:28:44.659Z,2.17
2022-11-14T03:31:12.983Z,2.25
2022-11-14T03:33:39.777Z,1.80
2022-11-14T03:36:07.316Z,1.63
2022-11-14T03:38:34.674Z,2.38
2022-11-14T03:41:01.665Z,2.10
2022-11-14T03:43:32.524Z,1.60
2022-11-14T03:46:00.747Z,2.05
2022-11-14T03:48:29.273Z,2.47
2022-11-14T03:50:56.486Z,2.30
2022-11-14T03:53:23.465Z,2.00
2022-11-14T03:55:51.406Z,2.58
2022-11-14T03:58:18.395Z,2.03
2022-11-14T04:00:45.265Z,2.80
2022-11-14T04:03:12.068Z,4.25
2022-11-14T04:05:38.878Z,4.47
2022-11-14T04:08:06.606Z,4.55
2022-11-14T04:10:33.472Z,4.43
2022-11-14T04:13:00.328Z,5.47
2022-11-14T04:15:27.047Z,5.47
2022-11-14T04:17:53.918Z,5.00
2022-11-14T04:20:20.761Z,6.22
2022-11-14T04:22:47.543Z,5.25
2022-11-14T04:25:14.401Z,3.95
2022-11-14T04:27:41.201Z,6.90
2022-11-14T04:30:08.569Z,6.15
2022-11-14T04:32:35.331Z,5.53
2022-11-14T04:35:02.122Z,4.97
2022-11-14T04:37:28.860Z,4.22
2022-11-14T04:39:58.859Z,5.55
2022-11-14T04:42:26.097Z,5.65
2022-11-14T04:44:52.929Z,5.53
2022-11-14T04:47:21.348Z,5.32
2022-11-14T04:49:48.072Z,5.55
2022-11-14T04:52:15.595Z,4.13
2022-11-14T04:54:42.403Z,3.70
2022-11-14T04:57:09.299Z,2.88
2022-11-14T04:59:36.086Z,2.72
2022-11-14T05:02:02.911Z,2.70
2022-11-14T05:04:29.705Z,2.92
2022-11-14T05:06:56.584Z,2.47
2022-11-14T05:09:23.427Z,2.78
2022-11-14T05:11:50.206Z,2.42
2022-11-14T05:14:17.036Z,1.90
2022-11-14T05:16:43.841Z,1.80
2022-11-14T05:19:10.599Z,2.08
2022-11-14T05:21:37.477Z,2.90
2022-11-14T05:24:04.596Z,2.97
2022-11-14T05:26:31.423Z,3.28
2022-11-14T05:28:58.239Z,2.60
2022-11-14T05:31:26.473Z,2.65
2022-11-14T05:33:53.267Z,2.85
2022-11-14T05:36:21.013Z,2.50
2022-11-14T05:38:47.761Z,2.08
2022-11-14T05:41:17.458Z,1.98
2022-11-14T05:43:44.706Z,2.50
2022-11-14T05:46:13.567Z,2.50
2022-11-14T05:48:43.065Z,1.98
2022-11-14T05:51:14.499Z,2.35
2022-11-14T05:53:41.833Z,2.30
2022-11-14T05:56:12.229Z,3.35
2022-11-14T05:58:39.548Z,2.85
2022-11-14T06:01:17.545Z,2.63
2022-11-14T06:03:47.057Z,3.47
2022-11-14T06:06:17.642Z,3.35
2022-11-14T06:08:45.057Z,2.67
2022-11-14T06:11:17.109Z,2.67
2022-11-14T06:13:44.377Z,2.38
2022-11-14T06:16:16.816Z,3.10
2022-11-14T06:18:44.199Z,2.45
2022-11-14T06:21:16.698Z,3.45
2022-11-14T06:23:44.232Z,3.22
2022-11-14T06:26:32.073Z,3.75
2022-11-14T06:29:00.612Z,3.90
2022-11-14T06:31:27.899Z,3.40
2022-11-14T06:33:55.088Z,4.28
2022-11-14T06:36:23.369Z,3.30
2022-11-14T06:38:50.340Z,3.08
2022-11-14T06:41:19.784Z,3.17
2022-11-14T06:43:48.912Z,4.40
2022-11-14T06:46:18.118Z,3.35
2022-11-14T06:48:46.267Z,3.40
2022-11-14T06:51:14.697Z,3.58
2022-11-14T06:53:41.894Z,3.78
2022-11-14T06:56:14.603Z,3.10
2022-11-14T06:58:44.183Z,3.03
2022-11-14T07:01:18.087Z,2.92
2022-11-14T07:03:45.764Z,3.70
2022-11-14T07:06:15.907Z,3.20
2022-11-14T07:08:42.968Z,2.97
2022-11-14T07:11:12.110Z,3.42
2022-11-14T07:13:39.195Z,3.42
2022-11-14T07:16:06.394Z,3.15
2022-11-14T07:18:34.361Z,3.55
2022-11-14T07:21:04.777Z,3.97
2022-11-14T07:23:32.951Z,3.63
2022-11-14T07:26:06.962Z,4.28
2022-11-14T07:28:42.576Z,3.70
2022-11-14T07:31:12.667Z,4.05
2022-11-14T07:33:40.633Z,4.43
2022-11-14T07:36:08.471Z,3.92
2022-11-14T07:38:36.713Z,3.70
2022-11-14T07:41:09.716Z,4.35
2022-11-14T07:43:36.890Z,2.90
2022-11-14T07:46:06.834Z,2.63
2022-11-14T07:48:34.016Z,2.50
2022-11-14T07:51:02.309Z,2.88
2022-11-14T07:53:29.346Z,3.33
2022-11-14T07:55:57.345Z,3.45
2022-11-14T07:58:24.328Z,3.00
2022-11-14T08:00:51.427Z,3.38
2022-11-14T08:03:18.358Z,3.20
2022-11-14T08:05:45.342Z,2.15
2022-11-14T08:08:12.137Z,2.90
2022-11-14T08:10:39.097Z,2.80
2022-11-14T08:15:53.873Z,2.15
2022-11-14T08:18:22.096Z,3.30
2022-11-14T08:20:48.889Z,3.60
2022-11-14T08:23:16.183Z,3.47
2022-11-14T08:25:43.101Z,4.45
2022-11-14T08:28:09.933Z,4.60
2022-11-14T08:30:36.828Z,4.05
2022-11-14T08:33:07.322Z,4.95
2022-11-14T08:35:34.487Z,4.80
2022-11-14T08:38:02.740Z,5.22
2022-11-14T08:40:30.298Z,5.28
2022-11-14T08:43:02.062Z,3.95
2022-11-14T08:45:30.014Z,4.03
2022-11-14T08:47:56.948Z,4.30
2022-11-14T08:50:23.991Z,3.75
2022-11-14T08:52:52.025Z,4.55
2022-11-14T08:55:19.735Z,5.00
2022-11-14T08:57:49.753Z,4.20
2022-11-14T09:00:17.650Z,4.00
2022-11-14T09:02:44.782Z,4.03
2022-11-14T09:05:11.758Z,3.45
2022-11-14T09:07:38.565Z,3.28
2022-11-14T09:10:05.884Z,4.28
2022-11-14T09:12:32.828Z,4.15
2022-11-14T09:14:59.782Z,3.28
2022-11-14T09:17:26.740Z,3.65
2022-11-14T09:19:54.096Z,3.30
2022-11-14T09:22:20.925Z,3.20
2022-11-14T09:24:47.835Z,2.88
2022-11-14T09:27:15.104Z,3.47
2022-11-14T09:29:41.911Z,3.92
2022-11-14T09:32:09.521Z,3.10
2022-11-14T09:34:37.405Z,3.50
2022-11-14T09:37:04.263Z,4.20
2022-11-14T09:39:31.096Z,4.07
2022-11-14T09:42:26.331Z,4.90
2022-11-14T09:45:02.493Z,4.65
2022-11-14T09:47:30.650Z,4.55
2022-11-14T09:50:20.653Z,3.60
2022-11-14T09:52:56.473Z,4.93
2022-11-14T09:55:36.575Z,4.57
2022-11-14T09:58:05.127Z,4.03
2022-11-14T10:00:51.987Z,4.88
2022-11-14T10:03:42.699Z,5.28
2022-11-14T10:06:50.816Z,4.68
2022-11-14T10:09:28.838Z,3.55
2022-11-14T10:12:04.564Z,4.25
2022-11-14T10:14:31.348Z,4.10
2022-11-14T10:17:24.472Z,4.05
2022-11-14T10:20:10.183Z,4.47
2022-11-14T10:23:08.482Z,4.25
2022-11-14T10:25:44.174Z,3.63
2022-11-14T10:28:23.360Z,4.15
2022-11-14T10:31:01.758Z,3.85
2022-11-14T10:33:51.095Z,4.22
2022-11-14T10:36:26.442Z,3.45
2022-11-14T10:39:10.963Z,4.18
2022-11-14T10:44:41.939Z,4.47
2022-11-14T10:47:16.036Z,4.28
2022-11-14T10:49:46.895Z,4.68
2022-11-14T10:52:20.162Z,4.10
2022-11-14T10:55:08.163Z,4.18
2022-11-14T10:57:35.352Z,4.63
2022-11-14T11:00:06.401Z,4.32
2022-11-14T11:02:54.334Z,4.75
2022-11-14T11:05:25.036Z,4.90
2022-11-14T11:08:28.609Z,3.75
2022-11-14T11:11:18.209Z,3.97
2022-11-14T11:13:55.899Z,3.40
2022-11-14T11:16:25.547Z,3.72
2022-11-14T11:18:52.536Z,3.38
2022-11-14T11:21:21.907Z,3.20
2022-11-14T11:23:48.748Z,3.10
2022-11-14T11:26:18.582Z,3.58
2022-11-14T11:29:09.929Z,3.78
2022-11-14T11:31:58.012Z,4.13
2022-11-14T11:34:31.029Z,4.07
2022-11-14T11:37:32.317Z,4.32
2022-11-14T11:40:03.019Z,4.20
2022-11-14T11:45:32.995Z,3.95
2022-11-14T11:48:19.212Z,4.40
2022-11-14T11:50:46.069Z,3.60
2022-11-14T11:53:34.340Z,3.72
2022-11-14T11:56:12.504Z,3.20
2022-11-14T11:58:45.157Z,4.10
2022-11-14T12:01:13.785Z,3.03
2022-11-14T12:03:46.556Z,3.40
2022-11-14T12:06:24.940Z,2.55
2022-11-14T12:09:08.398Z,3.00
2022-11-14T12:11:39.465Z,2.75
2022-11-14T12:14:08.939Z,2.80
2022-11-14T12:17:04.984Z,2.80
2022-11-14T12:19:37.220Z,3.50
2022-11-14T12:22:22.132Z,3.65
2022-11-14T12:24:51.900Z,3.70
2022-11-14T12:27:42.608Z,4.00
2022-11-14T12:30:16.310Z,3.75
2022-11-14T12:32:48.162Z,3.92
2022-11-14T12:35:24.571Z,3.38
2022-11-14T12:37:55.974Z,3.97
2022-11-14T12:40:28.931Z,3.60
2022-11-14T12:42:57.378Z,2.63
2022-11-14T12:45:36.519Z,3.35
2022-11-14T12:48:23.290Z,3.05
2022-11-14T12:50:50.332Z,3.10
2022-11-14T12:53:38.080Z,3.33
2022-11-14T12:56:32.929Z,2.80
2022-11-14T12:59:21.415Z,3.50
2022-11-14T13:01:54.580Z,3.22
2022-11-14T13:04:50.163Z,3.53
2022-11-14T13:07:51.494Z,3.33
2022-11-14T13:10:28.389Z,3.40
2022-11-14T13:13:34.911Z,3.65
2022-11-14T13:16:22.212Z,4.15
2022-11-14T13:19:20.493Z,4.13
2022-11-14T13:22:14.231Z,3.38
2022-11-14T13:24:59.363Z,3.20
2022-11-14T13:28:05.234Z,3.00
2022-11-14T13:30:59.870Z,2.83
2022-11-14T13:33:42.131Z,2.63
2022-11-14T13:36:19.487Z,2.97
2022-11-14T13:39:11.265Z,2.85
2022-11-14T13:42:15.453Z,3.20
2022-11-14T13:44:54.279Z,3.38
2022-11-14T13:47:39.968Z,3.47
2022-11-14T13:50:14.408Z,3.38
2022-11-14T13:52:44.644Z,3.83
2022-11-14T13:55:30.091Z,3.67
2022-11-14T13:58:02.845Z,3.38
2022-11-14T14:00:47.811Z,2.90
2022-11-14T14:03:56.369Z,2.55
2022-11-14T14:06:57.873Z,2.35
2022-11-14T14:09:30.543Z,1.60
2022-11-14T14:12:27.486Z,1.98
2022-11-14T14:15:08.217Z,2.17
2022-11-14T14:17:55.806Z,1.92
2022-11-14T14:20:28.624Z,3.08
2022-11-14T14:23:16.816Z,2.88
2022-11-14T14:25:59.980Z,2.97
2022-11-14T14:29:06.245Z,3.33
2022-11-14T14:31:41.529Z,3.05
2022-11-14T14:34:43.715Z,3.35
2022-11-14T14:37:19.660Z,3.40
2022-11-14T14:40:00.793Z,3.28
2022-11-14T14:42:36.152Z,2.97
2022-11-14T14:45:04.531Z,3.60
2022-11-14T14:47:42.921Z,2.90
2022-11-14T14:50:26.769Z,3.10
2022-11-14T14:53:01.030Z,2.90
2022-11-14T14:55:30.552Z,3.00
2022-11-14T14:58:23.918Z,3.08
2022-11-14T15:00:58.130Z,3.45
2022-11-14T15:03:35.449Z,3.45
2022-11-14T15:06:31.285Z,2.55
2022-11-14T15:09:02.207Z,2.78
2022-11-14T15:11:32.549Z,3.10
2022-11-14T15:14:01.468Z,2.83
2022-11-14T15:16:29.703Z,2.38
2022-11-14T15:18:58.085Z,2.67
2022-11-14T15:21:29.955Z,2.20
2022-11-14T15:24:12.399Z,2.30
2022-11-14T15:26:39.827Z,3.25
2022-11-14T15:29:22.862Z,3.25
2022-11-14T15:31:56.564Z,3.20
2022-11-14T15:34:25.491Z,3.05
2022-11-14T15:37:10.797Z,2.30
2022-11-14T15:39:38.431Z,2.35
2022-11-14T15:42:26.735Z,2.65
2022-11-14T15:44:53.747Z,3.13
2022-11-14T15:47:25.314Z,3.13
2022-11-14T15:50:12.513Z,3.88
2022-11-14T15:52:47.407Z,3.95
2022-11-14T15:55:20.615Z,2.85
2022-11-14T15:57:51.989Z,3.22
2022-11-14T16:00:33.696Z,3.80
2022-11-14T16:03:00.513Z,4.03
2022-11-14T16:05:31.354Z,3.38
2022-11-14T16:07:58.284Z,3.30
2022-11-14T16:10:27.464Z,2.95
2022-11-14T16:12:54.263Z,3.50
2022-11-14T16:15:21.783Z,2.90
2022-11-14T16:17:50.444Z,2.60
2022-11-14T16:20:23.491Z,2.15
2022-11-14T16:22:53.480Z,2.17
2022-11-14T16:25:31.648Z,2.17
2022-11-14T16:27:58.477Z,1.90
2022-11-14T16:30:26.038Z,2.08
2022-11-14T16:32:52.904Z,2.53
2022-11-14T16:35:20.891Z,1.90
2022-11-14T16:37:48.270Z,2.25
2022-11-14T16:40:19.362Z,2.90
2022-11-14T16:42:46.713Z,2.35
2022-11-14T16:45:13.736Z,2.67
2022-11-14T16:47:40.725Z,2.63
2022-11-14T16:50:07.787Z,2.17
2022-11-14T16:52:34.703Z,2.08
2022-11-14T16:55:01.853Z,1.58
2022-11-14T16:57:28.831Z,2.15
2022-11-14T16:59:57.253Z,2.22
2022-11-14T17:02:24.636Z,2.03
2022-11-14T17:04:51.787Z,2.00
2022-11-14T17:07:22.693Z,2.38
2022-11-14T17:09:49.929Z,2.95
2022-11-14T17:12:16.775Z,3.63
2022-11-14T17:14:43.545Z,4.38
2022-11-14T17:17:10.364Z,3.70
2022-11-14T17:19:38.995Z,3.90
2022-11-14T17:22:05.787Z,3.42
2022-11-14T17:24:32.602Z,2.95
2022-11-14T17:26:59.410Z,3.03
2022-11-14T17:29:26.252Z,2.65
2022-11-14T17:31:53.119Z,3.55
2022-11-14T17:34:19.929Z,3.30
2022-11-14T17:36:46.759Z,2.80
2022-11-14T17:39:13.550Z,3.30
2022-11-14T17:41:40.507Z,2.85
2022-11-14T17:44:07.423Z,3.28
2022-11-14T17:46:34.257Z,2.65
2022-11-14T17:49:01.775Z,2.75
2022-11-14T17:51:28.969Z,2.40
2022-11-14T17:53:55.748Z,2.50
2022-11-14T17:56:25.425Z,1.98
2022-11-14T17:58:53.609Z,1.95
2022-11-14T18:01:23.293Z,1.50
2022-11-14T18:03:50.858Z,1.58
2022-11-14T18:06:19.844Z,1.50
2022-11-14T18:08:47.361Z,1.40
2022-11-14T18:11:16.153Z,1.42
2022-11-14T18:13:43.145Z,1.40
2022-11-14T18:16:16.328Z,1.50
2022-11-14T18:18:43.425Z,1.20
2022-11-14T18:21:17.123Z,1.10
2022-11-14T18:23:49.613Z,1.02
2022-11-14T18:26:18.531Z,1.25
2022-11-14T18:28:45.565Z,1.10
2022-11-14T18:31:13.415Z,0.93
2022-11-14T18:33:41.927Z,1.10
2022-11-14T18:36:12.160Z,0.82
2022-11-14T18:38:39.514Z,1.13
2022-11-14T18:41:13.927Z,0.85
2022-11-14T18:43:41.202Z,1.05
2022-11-14T18:46:15.043Z,1.35
2022-11-14T18:48:45.520Z,1.65
2022-11-14T18:51:24.778Z,1.70
2022-11-14T18:53:51.793Z,2.10
2022-11-14T18:56:20.863Z,2.40
2022-11-14T18:58:47.940Z,2.30
2022-11-14T19:01:23.943Z,2.63
2022-11-14T19:03:52.367Z,2.83
2022-11-14T19:06:19.777Z,2.45
2022-11-14T19:08:46.975Z,3.20
2022-11-14T19:11:35.748Z,4.25
2022-11-14T19:14:04.850Z,4.82
2022-11-14T19:16:33.698Z,5.85
2022-11-14T19:19:00.642Z,4.88
2022-11-14T19:21:28.129Z,4.90
2022-11-14T19:23:55.059Z,4.28
2022-11-14T19:26:23.345Z,5.18
2022-11-14T19:28:50.229Z,4.35
2022-11-14T19:31:17.853Z,4.07
2022-11-14T19:33:47.346Z,4.72
2022-11-14T19:36:38.493Z,4.05
2022-11-14T19:39:07.927Z,4.55
2022-11-14T19:41:34.889Z,4.57
2022-11-14T19:44:02.846Z,5.40
2022-11-14T19:46:30.034Z,4.63
2022-11-14T19:48:58.296Z,3.63
2022-11-14T19:51:25.615Z,2.72
2022-11-14T19:53:55.827Z,2.33
2022-11-14T19:56:23.787Z,2.92
2022-11-14T19:58:52.237Z,2.40
2022-11-14T20:01:21.770Z,2.17
2022-11-14T20:03:55.136Z,2.17
2022-11-14T20:06:25.055Z,2.13
2022-11-14T20:08:55.261Z,2.75
2022-11-14T20:11:23.114Z,2.95
2022-11-14T20:13:50.100Z,2.50
2022-11-14T20:16:19.398Z,2.85
2022-11-14T20:18:57.465Z,3.00
2022-11-14T20:21:27.562Z,3.10
2022-11-14T20:23:54.747Z,2.63
2022-11-14T20:26:22.406Z,2.90
2022-11-14T20:28:52.195Z,2.65
2022-11-14T20:31:24.583Z,2.53
2022-11-14T20:33:52.967Z,2.35
2022-11-14T20:36:22.601Z,2.45
2022-11-14T20:38:50.260Z,2.47
2022-11-14T20:41:17.820Z,2.28
2022-11-14T20:43:45.532Z,2.42
2022-11-14T20:46:16.258Z,2.50
2022-11-14T20:48:43.721Z,2.70
2022-11-14T20:51:36.834Z,2.63
2022-11-14T20:54:03.872Z,2.92
2022-11-14T20:56:30.627Z,2.10
2022-11-14T20:58:57.443Z,2.38
2022-11-14T21:01:24.282Z,2.13
2022-11-14T21:03:52.089Z,2.70
2022-11-14T21:06:18.905Z,2.55
2022-11-14T21:08:45.700Z,2.53
2022-11-14T21:11:15.860Z,2.25
2022-11-14T21:14:04.234Z,1.63
2022-11-14T21:16:33.657Z,2.10
2022-11-14T21:19:02.037Z,1.88
2022-11-14T21:21:33.117Z,2.00
2022-11-14T21:23:59.921Z,2.72
2022-11-14T21:26:31.447Z,2.20
2022-11-14T21:29:01.614Z,2.42
2022-11-14T21:31:34.919Z,2.40
2022-11-14T21:34:07.382Z,3.03
2022-11-14T21:36:49.677Z,4.00
2022-11-14T21:39:17.799Z,2.80
2022-11-14T21:41:45.708Z,2.50
2022-11-14T21:44:14.661Z,2.65
2022-11-14T21:46:41.638Z,2.45
2022-11-14T21:49:09.286Z,2.30
2022-11-14T21:51:36.176Z,2.55
2022-11-14T21:54:03.092Z,2.63
2022-11-14T21:56:31.749Z,2.63
2022-11-14T21:59:16.113Z,3.13
2022-11-14T22:02:09.553Z,2.80
2022-11-14T22:04:36.798Z,2.88
2022-11-14T22:07:06.298Z,2.83
2022-11-14T22:09:34.103Z,3.10
2022-11-14T22:12:01.745Z,2.20
2022-11-14T22:14:29.511Z,2.35
2022-11-14T22:16:57.899Z,2.10
2022-11-14T22:19:24.979Z,2.10
2022-11-14T22:21:52.044Z,2.15
2022-11-14T22:24:18.871Z,1.90
2022-11-14T22:26:45.617Z,2.50
2022-11-14T22:29:12.401Z,1.90
2022-11-14T22:31:39.205Z,2.05
2022-11-14T22:34:06.216Z,2.33
2022-11-14T22:36:33.508Z,1.77
2022-11-14T22:39:00.423Z,1.70
2022-11-14T22:41:33.235Z,1.42
2022-11-14T22:44:01.919Z,1.80
2022-11-14T22:46:29.096Z,1.80
2022-11-14T22:48:56.144Z,2.10
2022-11-14T22:51:25.303Z,1.98
2022-11-14T22:53:54.037Z,1.48
2022-11-14T22:56:23.875Z,1.58
2022-11-14T22:58:50.770Z,1.00
2022-11-14T23:01:31.927Z,1.10
2022-11-14T23:04:01.106Z,0.90
2022-11-14T23:06:29.507Z,0.90
2022-11-14T23:08:56.624Z,1.10
2022-11-14T23:11:26.419Z,1.02
2022-11-14T23:13:55.146Z,1.20
2022-11-14T23:16:29.487Z,1.00
2022-11-14T23:18:58.366Z,1.50
2022-11-14T23:21:28.069Z,1.30
2022-11-14T23:23:59.863Z,1.02
2022-11-14T23:26:28.208Z,1.20
2022-11-14T23:28:55.174Z,1.17
2022-11-14T23:31:22.755Z,1.20
2022-11-14T23:33:52.002Z,1.38
2022-11-14T23:36:19.129Z,1.15
2022-11-14T23:38:45.922Z,0.90
2022-11-14T23:41:16.959Z,1.08
2022-11-14T23:43:43.859Z,1.00
2022-11-14T23:46:10.725Z,0.85
2022-11-14T23:48:37.458Z,1.20
2022-11-14T23:51:04.520Z,1.20
2022-11-14T23:53:31.599Z,1.23
2022-11-14T23:56:01.100Z,1.40
2022-11-14T23:58:29.389Z,1.23
